Time;durP1;ratioP1;P1;durP2;ratioP2;P2;SDS_P1;SDS_P2;PMS_P1;PMS_P2;Temp;Humidity;BMP_temperature;BMP_pressure;BME280_temperature;BME280_humidity;BME280_pressure;Samples;Min_cycle;Max_cycle;Signal;HPM_P1;HPM_P2
2021/08/04 00:01:11;;;;;;;;;;;;;;;14.57;80.95;96349.00;5060846;28;20325;-75
2021/08/04 00:03:37;;;;;;;;;;;;;;;14.56;80.99;96352.66;5082993;28;19989;-76
2021/08/04 00:06:03;;;;;;;;;;;;;;;14.55;81.54;96353.72;5087545;28;20018;-76
2021/08/04 00:08:29;;;;;;;;;;;;;;;14.56;81.01;96354.50;5060160;28;19964;-75
2021/08/04 00:10:55;;;;;;;;;;;;;;;14.53;80.71;96361.06;5062959;28;20382;-76
2021/08/04 00:13:21;;;;;;;;;;;;;;;14.53;80.77;96362.88;5082595;28;19969;-75
2021/08/04 00:15:47;;;;;;;;;;;;;;;14.51;80.72;96357.03;5089249;28;19968;-75
2021/08/04 00:18:14;;;;;;;;;;;;;;;14.50;80.85;96355.47;5080479;28;20340;-76
2021/08/04 00:20:41;;;;;;;;;;;;;;;14.51;81.16;96354.41;5078499;28;19996;-76
2021/08/04 00:23:07;;;;;;;;;;;;;;;14.52;80.34;96353.38;5067805;28;19972;-75
2021/08/04 00:25:32;;;;;;;;;;;;;;;14.49;80.27;96344.09;5080727;28;20472;-75
2021/08/04 00:27:58;;;;;;;;;;;;;;;14.49;80.66;96343.28;5084009;28;19965;-75
2021/08/04 00:30:24;;;;;;;;;;;;;;;14.47;80.62;96346.19;5083328;28;19965;-75
2021/08/04 00:32:53;;;;;;;;;;;;;;;14.45;81.00;96344.81;5083136;28;20051;-75
2021/08/04 00:35:20;;;;;;;;;;;;;;;14.44;81.16;96348.50;5082456;28;20409;-75
2021/08/04 00:37:46;;;;;;;;;;;;;;;14.43;80.42;96339.03;5083328;28;19969;-76
2021/08/04 00:40:12;;;;;;;;;;;;;;;14.43;80.55;96345.09;5068581;28;19968;-75
2021/08/04 00:42:38;;;;;;;;;;;;;;;14.43;80.65;96342.44;5062000;28;19984;-76
2021/08/04 00:45:05;;;;;;;;;;;;;;;14.43;80.37;96347.72;5069657;28;20417;-76
2021/08/04 00:47:31;;;;;;;;;;;;;;;14.43;80.91;96349.56;5083381;28;20362;-75
2021/08/04 00:49:57;;;;;;;;;;;;;;;14.42;80.63;96348.75;5061436;28;20075;-76
2021/08/04 00:52:22;;;;;;;;;;;;;;;14.40;80.73;96346.38;5083493;28;19971;-75
2021/08/04 00:54:49;;;;;;;;;;;;;;;14.38;80.68;96353.75;5087907;28;20433;-75
2021/08/04 00:57:14;;;;;;;;;;;;;;;14.38;80.46;96352.91;5083824;28;20425;-76
2021/08/04 00:59:40;;;;;;;;;;;;;;;14.34;81.07;96347.34;5084162;28;20059;-76
2021/08/04 01:02:13;;;;;;;;;;;;;;;14.33;81.09;96339.69;5060814;28;20336;-76
2021/08/04 01:04:45;;;;;;;;;;;;;;;14.32;81.25;96328.34;5087050;28;19987;-76
2021/08/04 01:07:21;;;;;;;;;;;;;;;14.30;81.54;96322.50;5089258;28;19972;-75
2021/08/04 01:10:01;;;;;;;;;;;;;;;14.31;81.22;96326.72;5085214;28;19964;-76
2021/08/04 01:12:30;;;;;;;;;;;;;;;14.31;81.48;96320.66;5087620;28;19960;-76
2021/08/04 01:15:00;;;;;;;;;;;;;;;14.28;81.50;96316.66;5087362;28;20328;-76
2021/08/04 01:17:26;;;;;;;;;;;;;;;14.26;81.52;96324.03;5085981;28;19961;-76
2021/08/04 01:20:01;;;;;;;;;;;;;;;14.21;81.20;96331.84;5069502;28;20335;-76
2021/08/04 01:22:46;;;;;;;;;;;;;;;14.18;81.70;96327.88;5080690;28;19976;-76
2021/08/04 01:25:13;;;;;;;;;;;;;;;14.17;81.56;96323.66;5084243;28;19964;-75
2021/08/04 01:27:45;;;;;;;;;;;;;;;14.17;81.42;96328.09;5086635;28;19964;-76
2021/08/04 01:30:12;;;;;;;;;;;;;;;14.18;81.77;96333.16;5087222;28;19961;-76
2021/08/04 01:32:38;;;;;;;;;;;;;;;14.18;81.61;96335.00;5052593;28;19964;-75
2021/08/04 01:35:04;;;;;;;;;;;;;;;14.17;81.65;96333.38;5085348;28;19987;-75
2021/08/04 01:37:31;;;;;;;;;;;;;;;14.15;81.27;96331.00;5084819;28;19969;-75
2021/08/04 01:39:57;;;;;;;;;;;;;;;14.12;81.52;96325.41;5092309;28;19983;-75
2021/08/04 01:42:23;;;;;;;;;;;;;;;14.10;81.23;96325.66;5085210;28;19968;-76
2021/08/04 01:44:50;;;;;;;;;;;;;;;14.11;81.54;96315.91;5067068;28;19964;-76
2021/08/04 01:47:17;;;;;;;;;;;;;;;14.12;81.43;96326.22;5084719;28;19964;-75
2021/08/04 01:49:44;;;;;;;;;;;;;;;14.11;81.43;96323.81;5066774;28;19993;-76
2021/08/04 01:52:11;;;;;;;;;;;;;;;14.12;81.31;96328.06;5079881;28;19968;-75
2021/08/04 01:54:38;;;;;;;;;;;;;;;14.10;81.17;96317.75;5080797;28;19980;-76
2021/08/04 01:57:05;;;;;;;;;;;;;;;14.10;81.58;96316.94;5089277;28;20332;-76
2021/08/04 01:59:31;;;;;;;;;;;;;;;14.08;81.06;96311.13;5086435;28;19964;-76
2021/08/04 02:02:15;;;;;;;;;;;;;;;14.08;81.29;96313.75;5079149;28;20339;-76
2021/08/04 02:04:41;;;;;;;;;;;;;;;14.07;81.66;96317.41;5066550;28;19961;-75
2021/08/04 02:07:10;;;;;;;;;;;;;;;14.07;81.16;96309.50;5083428;28;20047;-76
2021/08/04 02:09:46;;;;;;;;;;;;;;;14.06;80.88;96319.25;5086173;28;19972;-75
2021/08/04 02:12:12;;;;;;;;;;;;;;;14.05;81.77;96328.22;5085705;28;19961;-75
2021/08/04 02:14:44;;;;;;;;;;;;;;;14.05;81.73;96322.97;5087723;28;20392;-75
2021/08/04 02:17:13;;;;;;;;;;;;;;;14.05;81.54;96317.69;5069197;28;20317;-75
2021/08/04 02:19:47;;;;;;;;;;;;;;;14.05;81.36;96322.13;5064718;28;19969;-76
2021/08/04 02:22:25;;;;;;;;;;;;;;;14.04;81.73;96325.81;5086122;28;20443;-76
2021/08/04 02:24:55;;;;;;;;;;;;;;;14.02;81.87;96305.75;5084027;28;19971;-76
2021/08/04 02:27:21;;;;;;;;;;;;;;;14.01;81.54;96301.53;5088889;28;19961;-76
2021/08/04 02:29:48;;;;;;;;;;;;;;;14.01;81.75;96304.19;5086699;28;19969;-76
2021/08/04 02:32:14;;;;;;;;;;;;;;;14.00;81.19;96307.84;5080699;28;19965;-76
2021/08/04 02:34:41;;;;;;;;;;;;;;;13.98;80.99;96302.03;5087540;28;20018;-76
2021/08/04 02:37:07;;;;;;;;;;;;;;;13.97;81.12;96297.78;5084562;28;19987;-76
2021/08/04 02:39:33;;;;;;;;;;;;;;;13.97;80.90;96300.44;5089568;28;19964;-76
2021/08/04 02:42:00;;;;;;;;;;;;;;;13.97;81.16;96292.53;5084758;28;19964;-76
2021/08/04 02:44:26;;;;;;;;;;;;;;;13.96;80.90;96290.94;5081569;28;19985;-76
2021/08/04 02:46:52;;;;;;;;;;;;;;;13.94;80.69;96294.84;5084806;28;20051;-76
2021/08/04 02:49:18;;;;;;;;;;;;;;;13.91;80.88;96288.22;5088671;28;19992;-76
2021/08/04 02:51:45;;;;;;;;;;;;;;;13.91;81.49;96292.69;5079726;28;20336;-76
2021/08/04 02:54:15;;;;;;;;;;;;;;;13.90;81.17;96289.28;5085029;28;19972;-76
2021/08/04 02:56:41;;;;;;;;;;;;;;;13.89;81.54;96287.66;5085046;28;19971;-76
2021/08/04 02:59:07;;;;;;;;;;;;;;;13.90;81.73;96288.44;5064403;28;20404;-76
2021/08/04 03:01:33;;;;;;;;;;;;;;;13.89;81.54;96292.16;5084393;28;19980;-76
2021/08/04 03:03:59;;;;;;;;;;;;;;;13.89;81.68;96297.41;5084419;28;20436;-76
2021/08/04 03:06:25;;;;;;;;;;;;;;;13.88;81.35;96286.06;5066168;28;20019;-76
2021/08/04 03:08:52;;;;;;;;;;;;;;;13.88;81.37;96282.63;5044328;28;20436;-76
2021/08/04 03:11:18;;;;;;;;;;;;;;;13.86;81.51;96280.25;5085096;28;19965;-76
2021/08/04 03:13:43;;;;;;;;;;;;;;;13.85;81.50;96283.91;5082312;28;19968;-76
2021/08/04 03:16:09;;;;;;;;;;;;;;;13.85;81.77;96285.75;5078614;28;19969;-76
2021/08/04 03:18:35;;;;;;;;;;;;;;;13.84;81.14;96287.59;5085513;28;20411;-76
2021/08/04 03:21:01;;;;;;;;;;;;;;;13.85;81.56;96288.41;5083259;28;20056;-76
2021/08/04 03:23:27;;;;;;;;;;;;;;;13.83;81.64;96283.34;5089323;28;19984;-77
2021/08/04 03:25:53;;;;;;;;;;;;;;;13.83;81.73;96290.47;5088976;28;19960;-76
2021/08/04 03:28:19;;;;;;;;;;;;;;;13.81;81.50;96285.44;5063230;28;19964;-75
2021/08/04 03:30:45;;;;;;;;;;;;;;;13.79;81.39;96293.56;5082909;28;19964;-76
2021/08/04 03:33:11;;;;;;;;;;;;;;;13.77;81.71;96287.78;5066376;28;20004;-76
2021/08/04 03:35:37;;;;;;;;;;;;;;;13.77;81.61;96287.78;5083874;28;19961;-76
2021/08/04 03:38:03;;;;;;;;;;;;;;;13.76;81.88;96288.00;5085257;28;19965;-75
2021/08/04 03:40:29;;;;;;;;;;;;;;;13.74;82.24;96284.81;5083513;28;20336;-75
2021/08/04 03:42:55;;;;;;;;;;;;;;;13.70;81.76;96288.97;5084197;28;20067;-75
2021/08/04 03:45:21;;;;;;;;;;;;;;;13.69;81.83;96282.09;5086264;28;19969;-75
2021/08/04 03:47:47;;;;;;;;;;;;;;;13.67;81.54;96284.16;5079447;28;20435;-75
2021/08/04 03:50:13;;;;;;;;;;;;;;;13.67;81.76;96286.81;5087715;28;19989;-75
2021/08/04 03:52:42;;;;;;;;;;;;;;;13.68;82.10;96283.94;5087131;28;19968;-76
2021/08/04 03:55:08;;;;;;;;;;;;;;;13.66;82.01;96280.75;5060851;28;20443;-76
2021/08/04 03:57:34;;;;;;;;;;;;;;;13.65;81.54;96294.16;5084685;28;19969;-76
2021/08/04 04:00:00;;;;;;;;;;;;;;;13.62;81.96;96281.47;5066657;28;19972;-76
2021/08/04 04:02:26;;;;;;;;;;;;;;;13.62;82.00;96286.75;5066741;28;19987;-75
2021/08/04 04:04:52;;;;;;;;;;;;;;;13.60;81.92;96281.69;5086827;28;19984;-76
2021/08/04 04:07:18;;;;;;;;;;;;;;;13.60;82.06;96290.41;5079687;28;19969;-76
2021/08/04 04:09:44;;;;;;;;;;;;;;;13.62;81.65;96279.63;5084522;28;19969;-75
2021/08/04 04:12:10;;;;;;;;;;;;;;;13.64;81.93;96284.66;5084198;28;19961;-76
2021/08/04 04:14:36;;;;;;;;;;;;;;;13.63;82.12;96285.69;5086695;28;19975;-76
2021/08/04 04:17:01;;;;;;;;;;;;;;;13.64;82.14;96285.44;5081507;28;20407;-76
2021/08/04 04:19:27;;;;;;;;;;;;;;;13.65;81.91;96283.59;5082017;28;19968;-76
2021/08/04 04:21:53;;;;;;;;;;;;;;;13.65;82.08;96283.59;5084276;28;19977;-76
2021/08/04 04:24:19;;;;;;;;;;;;;;;13.64;81.81;96282.03;5086659;28;19989;-76
2021/08/04 04:26:45;;;;;;;;;;;;;;;13.64;82.17;96280.19;5065743;28;19964;-76
2021/08/04 04:29:11;;;;;;;;;;;;;;;13.63;82.21;96291.78;5077592;28;19961;-76
2021/08/04 04:31:37;;;;;;;;;;;;;;;13.64;81.96;96284.66;5081287;28;20475;-76
2021/08/04 04:34:03;;;;;;;;;;;;;;;13.64;81.93;96290.72;5089131;28;20329;-76
2021/08/04 04:36:29;;;;;;;;;;;;;;;13.65;82.00;96294.97;5064744;28;20063;-76
2021/08/04 04:38:55;;;;;;;;;;;;;;;13.65;81.96;96297.59;5080132;28;20335;-76
2021/08/04 04:41:21;;;;;;;;;;;;;;;13.66;82.13;96293.13;5086384;28;19965;-76
2021/08/04 04:43:47;;;;;;;;;;;;;;;13.66;82.15;96293.91;5052750;28;19990;-76
2021/08/04 04:46:12;;;;;;;;;;;;;;;13.66;81.96;96291.28;5088498;28;20004;-76
2021/08/04 04:48:38;;;;;;;;;;;;;;;13.67;82.25;96294.72;5081627;28;19990;-76
2021/08/04 04:51:04;;;;;;;;;;;;;;;13.68;82.85;96289.19;5084491;28;20027;-76
2021/08/04 04:53:30;;;;;;;;;;;;;;;13.70;82.45;96297.66;5090485;28;20433;-76
2021/08/04 04:55:56;;;;;;;;;;;;;;;13.70;81.62;96291.59;5089707;28;20019;-76
2021/08/04 04:58:22;;;;;;;;;;;;;;;13.67;82.21;96299.97;5069840;28;19989;-76
2021/08/04 05:00:48;;;;;;;;;;;;;;;13.68;82.25;96301.59;5083927;28;19971;-76
2021/08/04 05:03:14;;;;;;;;;;;;;;;13.69;82.26;96313.72;5082110;28;20003;-76
2021/08/04 05:05:39;;;;;;;;;;;;;;;13.70;82.09;96307.41;5067709;28;19975;-76
2021/08/04 05:08:05;;;;;;;;;;;;;;;13.71;81.97;96309.81;5091645;28;20051;-76
2021/08/04 05:10:31;;;;;;;;;;;;;;;13.72;83.08;96311.41;5083103;28;19964;-76
2021/08/04 05:12:57;;;;;;;;;;;;;;;13.71;81.85;96309.81;5064949;28;19995;-76
2021/08/04 05:15:23;;;;;;;;;;;;;;;13.73;82.07;96309.56;5068426;28;19968;-75
2021/08/04 05:17:49;;;;;;;;;;;;;;;13.78;82.67;96309.66;5091048;28;20011;-76
2021/08/04 05:20:15;;;;;;;;;;;;;;;13.83;82.76;96304.44;5068904;28;19968;-76
2021/08/04 05:22:41;;;;;;;;;;;;;;;13.87;81.64;96310.81;5086437;28;19979;-76
2021/08/04 05:25:07;;;;;;;;;;;;;;;13.90;81.82;96304.25;5062094;28;19987;-76
2021/08/04 05:27:33;;;;;;;;;;;;;;;13.92;81.36;96303.00;5086781;28;19973;-76
2021/08/04 05:29:59;;;;;;;;;;;;;;;13.92;81.55;96304.81;5090044;28;19968;-75
2021/08/04 05:32:25;;;;;;;;;;;;;;;13.92;81.85;96303.00;5068441;28;19968;-76
2021/08/04 05:34:51;;;;;;;;;;;;;;;13.97;81.46;96312.81;5086115;28;20014;-75
2021/08/04 05:37:17;;;;;;;;;;;;;;;14.08;81.18;96309.28;5087298;28;20464;-75
2021/08/04 05:39:43;;;;;;;;;;;;;;;14.21;80.55;96314.22;5066006;28;19971;-76
2021/08/04 05:42:09;;;;;;;;;;;;;;;14.42;80.41;96306.53;5087181;28;20004;-76
2021/08/04 05:44:34;;;;;;;;;;;;;;;14.65;80.06;96305.50;5088027;28;20097;-76
2021/08/04 05:47:00;;;;;;;;;;;;;;;14.77;78.67;96310.66;5061630;28;19964;-76
2021/08/04 05:49:26;;;;;;;;;;;;;;;14.81;77.66;96319.69;5086664;28;19989;-76
2021/08/04 05:51:53;;;;;;;;;;;;;;;14.97;78.51;96310.06;5071738;28;19973;-76
2021/08/04 05:54:19;;;;;;;;;;;;;;;15.55;77.03;96303.19;5069056;28;19995;-76
2021/08/04 05:56:45;;;;;;;;;;;;;;;16.04;74.54;96302.22;5065870;28;19965;-76
2021/08/04 05:59:11;;;;;;;;;;;;;;;16.54;73.67;96292.16;5084329;28;19976;-76
2021/08/04 06:01:38;;;;;;;;;;;;;;;16.97;71.60;96295.47;5086547;28;19976;-77
2021/08/04 06:04:04;;;;;;;;;;;;;;;17.48;68.38;96278.81;5088899;28;19973;-76
2021/08/04 06:06:30;;;;;;;;;;;;;;;17.94;68.08;96287.56;5087790;28;20007;-76
2021/08/04 06:08:56;;;;;;;;;;;;;;;18.24;66.57;96288.53;5086285;28;19968;-76
2021/08/04 06:11:22;;;;;;;;;;;;;;;18.37;66.33;96287.97;5085848;28;19960;-76
2021/08/04 06:13:48;;;;;;;;;;;;;;;18.64;65.63;96290.22;5085270;28;19969;-76
2021/08/04 06:16:14;;;;;;;;;;;;;;;18.97;65.45;96289.84;5090373;28;19965;-76
2021/08/04 06:18:40;;;;;;;;;;;;;;;19.29;64.90;96288.56;5084813;28;19969;-76
2021/08/04 06:21:06;;;;;;;;;;;;;;;19.43;62.20;96273.56;5090463;28;20059;-76
2021/08/04 06:23:32;;;;;;;;;;;;;;;19.71;62.17;96274.66;5081350;28;19976;-76
2021/08/04 06:25:58;;;;;;;;;;;;;;;20.02;60.78;96266.38;5085488;28;19973;-76
2021/08/04 06:28:24;;;;;;;;;;;;;;;20.27;60.97;96275.97;5081248;28;20055;-76
2021/08/04 06:30:50;;;;;;;;;;;;;;;20.51;59.60;96256.50;5085619;28;20068;-76
2021/08/04 06:33:16;;;;;;;;;;;;;;;20.50;58.23;96246.94;5087120;28;19996;-77
2021/08/04 06:35:42;;;;;;;;;;;;;;;20.47;59.25;96269.59;5088825;28;20062;-77
2021/08/04 06:38:09;;;;;;;;;;;;;;;20.61;60.66;96285.72;5083705;28;19972;-76
2021/08/04 06:40:35;;;;;;;;;;;;;;;20.61;58.50;96257.19;5084759;28;19965;-76
2021/08/04 06:43:00;;;;;;;;;;;;;;;20.60;56.97;96254.78;5065994;28;20059;-76
2021/08/04 06:45:26;;;;;;;;;;;;;;;20.57;58.80;96268.69;5086395;28;19981;-76
2021/08/04 06:47:52;;;;;;;;;;;;;;;20.55;56.96;96254.84;5085399;28;19968;-76
2021/08/04 06:50:18;;;;;;;;;;;;;;;20.62;52.86;96218.00;5085503;28;19992;-76
2021/08/04 06:52:44;;;;;;;;;;;;;;;20.62;57.39;96266.78;5085547;28;19968;-76
2021/08/04 06:55:10;;;;;;;;;;;;;;;20.47;54.99;96245.59;5063040;28;20347;-76
2021/08/04 06:57:37;;;;;;;;;;;;;;;20.30;55.94;96255.97;5045013;28;19973;-76
2021/08/04 07:00:04;;;;;;;;;;;;;;;20.01;57.06;96276.25;5083586;28;19973;-77
2021/08/04 07:02:30;;;;;;;;;;;;;;;19.73;57.21;96277.06;5083834;28;20404;-76
2021/08/04 07:04:55;;;;;;;;;;;;;;;19.59;59.23;96283.00;5084592;28;19991;-76
2021/08/04 07:07:21;;;;;;;;;;;;;;;19.62;61.99;96316.22;5081834;28;19972;-76
2021/08/04 07:09:47;;;;;;;;;;;;;;;19.49;60.58;96301.69;5087802;28;19965;-76
2021/08/04 07:12:13;;;;;;;;;;;;;;;19.06;59.23;96285.50;5089279;28;20002;-76
2021/08/04 07:14:39;;;;;;;;;;;;;;;18.66;61.11;96311.19;5066028;28;20340;-76
2021/08/04 07:17:06;;;;;;;;;;;;;;;18.39;62.34;96320.31;5078019;28;20011;-76
2021/08/04 07:19:32;;;;;;;;;;;;;;;18.15;64.08;96322.00;5061096;28;19969;-76
2021/08/04 07:21:58;;;;;;;;;;;;;;;17.96;62.80;96314.59;5090575;28;19968;-76
2021/08/04 07:24:24;;;;;;;;;;;;;;;17.81;63.72;96314.59;5087239;28;19994;-76
2021/08/04 07:26:50;;;;;;;;;;;;;;;17.67;64.67;96313.56;5080347;28;19972;-76
2021/08/04 07:29:16;;;;;;;;;;;;;;;17.46;64.89;96318.84;5084494;28;20437;-76
2021/08/04 07:31:42;;;;;;;;;;;;;;;17.29;65.47;96323.63;5084455;28;19976;-76
2021/08/04 07:34:14;;;;;;;;;;;;;;;17.17;65.94;96314.03;5083545;28;19968;-76
2021/08/04 07:36:40;;;;;;;;;;;;;;;17.01;65.64;96313.25;5082939;28;20404;-76
2021/08/04 07:39:06;;;;;;;;;;;;;;;16.95;67.03;96321.44;5063460;28;19966;-76
2021/08/04 07:41:32;;;;;;;;;;;;;;;16.97;67.79;96319.31;5079391;28;19973;-76
2021/08/04 07:43:58;;;;;;;;;;;;;;;16.99;66.22;96306.63;5090491;28;19981;-76
2021/08/04 07:46:24;;;;;;;;;;;;;;;17.02;65.42;96300.78;5067574;28;20000;-76
2021/08/04 07:48:50;;;;;;;;;;;;;;;17.06;66.13;96301.06;5076744;28;19969;-77
2021/08/04 07:51:15;;;;;;;;;;;;;;;17.15;68.22;96308.22;5064935;28;19973;-76
2021/08/04 07:53:42;;;;;;;;;;;;;;;17.09;67.09;96306.59;5063275;28;19973;-76
2021/08/04 07:56:08;;;;;;;;;;;;;;;16.93;66.40;96308.44;5068635;28;19965;-77
2021/08/04 07:58:34;;;;;;;;;;;;;;;16.86;65.77;96293.84;5058285;28;20356;-77
2021/08/04 08:01:00;;;;;;;;;;;;;;;16.84;67.63;96302.88;5066018;28;19965;-76
2021/08/04 08:03:26;;;;;;;;;;;;;;;16.81;67.81;96306.03;5067140;28;19968;-77
2021/08/04 08:05:52;;;;;;;;;;;;;;;16.83;69.74;96314.50;5063910;28;20378;-76
2021/08/04 08:08:18;;;;;;;;;;;;;;;16.90;68.97;96305.53;5059227;28;20309;-76
2021/08/04 08:10:46;;;;;;;;;;;;;;;16.94;67.48;96303.94;5045018;28;20414;-76
2021/08/04 08:13:13;;;;;;;;;;;;;;;16.98;67.11;96305.00;5063949;28;19969;-77
2021/08/04 08:15:39;;;;;;;;;;;;;;;16.94;67.11;96310.03;5066295;28;20305;-76
2021/08/04 08:18:06;;;;;;;;;;;;;;;16.92;66.92;96303.41;5062452;28;19972;-76
2021/08/04 08:20:32;;;;;;;;;;;;;;;16.96;67.15;96301.81;5054972;28;19976;-76
2021/08/04 08:22:58;;;;;;;;;;;;;;;17.07;66.89;96314.03;5065856;28;19973;-76
2021/08/04 08:25:24;;;;;;;;;;;;;;;17.28;67.23;96319.34;5062153;28;19985;-76
2021/08/04 08:27:50;;;;;;;;;;;;;;;17.45;66.64;96311.97;5073729;28;19979;-76
2021/08/04 08:30:16;;;;;;;;;;;;;;;17.61;65.11;96302.16;5069636;28;20404;-76
2021/08/04 08:32:46;;;;;;;;;;;;;;;17.76;66.22;96304.00;5063812;28;20006;-76
2021/08/04 08:35:11;;;;;;;;;;;;;;;17.89;65.30;96300.03;5064283;28;19965;-76
2021/08/04 08:37:37;;;;;;;;;;;;;;;17.96;65.01;96308.50;5064548;28;19969;-76
2021/08/04 08:40:04;;;;;;;;;;;;;;;17.95;64.38;96296.28;5072689;28;19996;-76
2021/08/04 08:42:29;;;;;;;;;;;;;;;17.96;65.33;96308.50;5046397;28;20416;-76
2021/08/04 08:44:57;;;;;;;;;;;;;;;17.94;64.17;96297.38;5056018;28;19977;-76
2021/08/04 08:47:23;;;;;;;;;;;;;;;17.94;65.17;96302.69;5048361;28;19968;-76
2021/08/04 08:49:48;;;;;;;;;;;;;;;17.91;64.15;96290.75;5070056;28;19988;-76
2021/08/04 08:52:14;;;;;;;;;;;;;;;17.93;64.16;96285.16;5086633;28;20331;-77
2021/08/04 08:54:41;;;;;;;;;;;;;;;18.01;64.80;96287.25;5087695;28;20348;-76
2021/08/04 08:57:07;;;;;;;;;;;;;;;18.09;63.97;96280.63;5065734;28;19965;-76
2021/08/04 08:59:32;;;;;;;;;;;;;;;18.21;64.03;96273.94;5062480;28;19972;-76
2021/08/04 09:01:58;;;;;;;;;;;;;;;18.35;65.04;96276.84;5087221;28;19973;-76
2021/08/04 09:04:24;;;;;;;;;;;;;;;18.49;61.91;96258.44;5092575;28;20003;-76
2021/08/04 09:06:52;;;;;;;;;;;;;;;18.42;60.04;96244.66;5062708;28;19968;-76
2021/08/04 09:09:19;;;;;;;;;;;;;;;18.44;61.80;96253.94;5088367;28;19961;-76
2021/08/04 09:11:46;;;;;;;;;;;;;;;18.55;59.58;96230.00;5084836;28;20409;-76
2021/08/04 09:14:12;;;;;;;;;;;;;;;18.65;62.29;96256.50;5084821;28;19968;-77
2021/08/04 09:16:39;;;;;;;;;;;;;;;18.63;59.52;96237.41;5083315;28;20410;-76
2021/08/04 09:19:19;;;;;;;;;;;;;;;18.65;62.04;96259.16;5090098;28;19965;-77
2021/08/04 09:22:03;;;;;;;;;;;;;;;18.72;61.58;96257.00;5083175;28;19991;-76
2021/08/04 09:24:29;;;;;;;;;;;;;;;18.63;61.06;96250.69;5087216;28;19977;-76
2021/08/04 09:26:55;;;;;;;;;;;;;;;18.54;60.69;96255.78;5089141;28;20056;-77
2021/08/04 09:29:21;;;;;;;;;;;;;;;18.61;61.21;96242.97;5082958;28;19969;-76
2021/08/04 09:31:48;;;;;;;;;;;;;;;18.66;60.60;96242.16;5084504;28;19971;-76
2021/08/04 09:34:34;;;;;;;;;;;;;;;18.64;60.84;96247.72;5069103;28;19983;-76
2021/08/04 09:37:07;;;;;;;;;;;;;;;18.61;59.27;96226.25;5084055;28;19975;-77
2021/08/04 09:39:33;;;;;;;;;;;;;;;18.55;60.79;96253.91;5091263;28;19975;-76
2021/08/04 09:41:59;;;;;;;;;;;;;;;18.56;60.86;96239.53;5086381;28;19972;-76
2021/08/04 09:44:25;;;;;;;;;;;;;;;18.71;61.13;96247.44;5067750;28;19983;-76
2021/08/04 09:47:06;;;;;;;;;;;;;;;18.78;58.37;96221.38;5065116;28;19973;-77
2021/08/04 09:49:32;;;;;;;;;;;;;;;18.85;57.27;96200.59;5086119;28;19996;-76
2021/08/04 09:52:08;;;;;;;;;;;;;;;18.97;60.67;96237.47;5087076;28;19976;-76
2021/08/04 09:54:41;;;;;;;;;;;;;;;19.08;56.58;96195.66;5085606;28;19972;-76
2021/08/04 09:57:07;;;;;;;;;;;;;;;19.04;59.00;96227.31;5081847;28;19987;-77
2021/08/04 09:59:33;;;;;;;;;;;;;;;19.14;58.76;96210.50;5084189;28;19972;-76
2021/08/04 10:02:00;;;;;;;;;;;;;;;19.19;60.28;96228.25;5073535;28;19965;-77
2021/08/04 10:04:25;;;;;;;;;;;;;;;19.34;58.49;96212.22;5085433;28;19980;-76
2021/08/04 10:07:02;;;;;;;;;;;;;;;19.36;56.15;96191.44;5082695;28;20375;-77
2021/08/04 10:09:28;;;;;;;;;;;;;;;19.35;57.12;96205.00;5087350;28;19967;-76
2021/08/04 10:11:55;;;;;;;;;;;;;;;19.35;56.53;96186.41;5054488;28;19972;-76
2021/08/04 10:14:21;;;;;;;;;;;;;;;19.42;56.59;96186.84;5085044;28;19979;-76
2021/08/04 10:16:48;;;;;;;;;;;;;;;19.47;54.54;96176.19;5086490;28;20348;-77
2021/08/04 10:19:15;;;;;;;;;;;;;;;19.51;55.33;96171.06;5087054;28;20367;-76
2021/08/04 10:21:44;;;;;;;;;;;;;;;19.65;57.32;96191.44;5087932;28;20448;-77
2021/08/04 10:24:11;;;;;;;;;;;;;;;19.94;56.85;96187.94;5084095;28;19980;-76
2021/08/04 10:26:38;;;;;;;;;;;;;;;20.18;57.58;96187.94;5084719;28;19964;-76
2021/08/04 10:29:04;;;;;;;;;;;;;;;20.33;54.85;96147.00;5065908;28;19972;-76
2021/08/04 10:31:31;;;;;;;;;;;;;;;20.40;56.50;96168.72;5085555;28;19964;-77
2021/08/04 10:33:58;;;;;;;;;;;;;;;20.39;54.87;96148.50;5089105;28;19993;-77
2021/08/04 10:36:29;;;;;;;;;;;;;;;20.34;53.78;96139.78;5078669;28;19961;-77
2021/08/04 10:38:57;;;;;;;;;;;;;;;20.31;55.81;96153.69;5084902;28;19965;-77
2021/08/04 10:41:25;;;;;;;;;;;;;;;20.40;56.40;96158.06;5087472;28;19961;-76
2021/08/04 10:43:52;;;;;;;;;;;;;;;20.45;55.01;96142.03;5087307;28;19969;-77
2021/08/04 10:46:30;;;;;;;;;;;;;;;20.42;55.27;96147.94;5083938;28;19980;-76
2021/08/04 10:48:57;;;;;;;;;;;;;;;20.53;54.81;96153.09;5057557;28;19976;-78
2021/08/04 10:51:23;;;;;;;;;;;;;;;20.71;56.23;96152.34;5086862;28;19968;-76
2021/08/04 10:54:01;;;;;;;;;;;;;;;20.79;50.31;96109.03;5087120;28;19975;-76
2021/08/04 10:56:39;;;;;;;;;;;;;;;20.88;53.92;96136.59;5069180;28;19964;-76
2021/08/04 10:59:08;;;;;;;;;;;;;;;21.02;52.44;96112.66;5078359;28;19976;-76
2021/08/04 11:01:42;;;;;;;;;;;;;;;21.19;53.73;96127.31;5068189;28;20046;-76
2021/08/04 11:04:08;;;;;;;;;;;;;;;21.35;52.69;96120.59;5053887;28;20332;-77
2021/08/04 11:06:34;;;;;;;;;;;;;;;21.41;51.79;96107.97;5079990;28;19976;-77
2021/08/04 11:09:12;;;;;;;;;;;;;;;21.25;50.98;96105.59;5065737;28;20417;-77
2021/08/04 11:12:00;;;;;;;;;;;;;;;20.98;51.83;96122.34;5090113;28;19964;-77
2021/08/04 11:14:38;;;;;;;;;;;;;;;20.79;53.68;96119.72;5066276;28;19960;-76
2021/08/04 11:17:04;;;;;;;;;;;;;;;20.59;48.14;96082.72;5058824;28;19971;-76
2021/08/04 11:19:34;;;;;;;;;;;;;;;20.43;49.88;96095.44;5083680;28;19972;-77
2021/08/04 11:22:17;;;;;;;;;;;;;;;20.48;54.24;96140.66;5078124;28;19976;-77
2021/08/04 11:24:50;;;;;;;;;;;;;;;20.62;52.97;96122.09;5070728;28;19983;-77
2021/08/04 11:27:16;;;;;;;;;;;;;;;20.50;53.24;96125.19;5079063;28;20345;-77
2021/08/04 11:29:43;;;;;;;;;;;;;;;20.60;52.77;96118.91;5086363;28;19973;-77
2021/08/04 11:32:16;;;;;;;;;;;;;;;20.71;54.31;96124.91;5087922;28;19976;-76
2021/08/04 11:34:42;;;;;;;;;;;;;;;20.83;51.75;96115.38;5078157;28;19980;-76
2021/08/04 11:37:08;;;;;;;;;;;;;;;20.87;52.05;96113.72;5064237;28;20336;-76
2021/08/04 11:39:34;;;;;;;;;;;;;;;20.86;50.66;96109.44;5086331;28;19972;-77
2021/08/04 11:42:05;;;;;;;;;;;;;;;20.79;50.75;96117.03;5083421;28;19971;-76
2021/08/04 11:44:32;;;;;;;;;;;;;;;20.68;52.46;96135.06;5061362;28;20444;-77
2021/08/04 11:47:02;;;;;;;;;;;;;;;20.74;54.65;96148.31;5080843;28;19965;-77
2021/08/04 11:49:31;;;;;;;;;;;;;;;20.72;51.28;96119.28;5080319;28;19996;-76
2021/08/04 11:52:04;;;;;;;;;;;;;;;20.68;52.36;96129.75;5082744;28;20417;-77
2021/08/04 11:54:35;;;;;;;;;;;;;;;20.64;50.90;96104.75;5087815;28;19972;-77
2021/08/04 11:57:02;;;;;;;;;;;;;;;20.51;52.24;96123.31;5081158;28;19968;-77
2021/08/04 11:59:29;;;;;;;;;;;;;;;20.35;51.48;96120.06;5061355;28;19964;-77
2021/08/04 12:01:59;;;;;;;;;;;;;;;20.20;53.27;96135.19;5081164;28;20344;-77
2021/08/04 12:04:26;;;;;;;;;;;;;;;20.08;52.08;96124.94;5087425;28;20441;-77
2021/08/04 12:06:56;;;;;;;;;;;;;;;20.01;54.13;96134.34;5085041;28;20416;-76
2021/08/04 12:09:26;;;;;;;;;;;;;;;20.07;54.29;96128.72;5083468;28;20340;-77
2021/08/04 12:11:53;;;;;;;;;;;;;;;20.20;54.71;96129.88;5081114;28;19965;-76
2021/08/04 12:14:20;;;;;;;;;;;;;;;20.26;51.77;96114.59;5063348;28;19968;-76
2021/08/04 12:16:48;;;;;;;;;;;;;;;20.26;53.46;96122.59;5061250;28;19969;-76
2021/08/04 12:19:32;;;;;;;;;;;;;;;20.24;52.37;96119.41;5077378;28;19969;-77
2021/08/04 12:21:58;;;;;;;;;;;;;;;20.27;52.13;96116.19;5069658;28;19970;-76
2021/08/04 12:24:24;;;;;;;;;;;;;;;20.26;54.34;96128.72;5079694;28;19965;-76
2021/08/04 12:26:50;;;;;;;;;;;;;;;20.31;52.19;96111.09;5066559;28;20015;-77
2021/08/04 12:29:19;;;;;;;;;;;;;;;20.35;51.95;96110.22;5081741;28;19969;-77
2021/08/04 12:32:03;;;;;;;;;;;;;;;20.38;52.17;96111.50;5080270;28;19964;-76
2021/08/04 12:34:30;;;;;;;;;;;;;;;20.41;53.50;96130.38;5078482;28;19965;-77
2021/08/04 12:36:57;;;;;;;;;;;;;;;20.34;53.19;96126.47;5083339;28;19965;-76
2021/08/04 12:39:29;;;;;;;;;;;;;;;20.37;53.54;96120.56;5082388;28;19961;-76
2021/08/04 12:41:55;;;;;;;;;;;;;;;20.44;53.65;96121.78;5070356;28;19971;-76
2021/08/04 12:44:23;;;;;;;;;;;;;;;20.50;53.82;96130.50;5050754;28;19992;-76
2021/08/04 12:46:49;;;;;;;;;;;;;;;20.52;53.27;96120.34;5078020;28;19971;-77
2021/08/04 12:49:17;;;;;;;;;;;;;;;20.57;52.76;96108.84;5082887;28;19989;-77